Time;durP1;ratioP1;P1;durP2;ratioP2;P2;SDS_P1;SDS_P2;PMS_P1;PMS_P2;Temp;Humidity;BMP_temperature;BMP_pressure;BME280_temperature;BME280_humidity;BME280_pressure;Samples;Min_cycle;Max_cycle;Signal;HPM_P1;HPM_P2
2022/09/03 00:00:11;;;;;;;;;7.00;7.00;;;;;22.60;56.01;100255.34;5100357;27;45485;-53
2022/09/03 00:02:44;;;;;;;;;8.00;7.00;;;;;22.77;56.01;100279.13;5118973;27;45254;-53
2022/09/03 00:05:36;;;;;;;;;7.60;7.60;;;;;22.78;55.66;100275.19;5100497;27;45404;-53
2022/09/03 00:08:24;;;;;;;;;7.20;7.20;;;;;22.79;55.90;100279.63;5094359;27;45773;-50
2022/09/03 00:11:16;;;;;;;;;3.40;3.40;;;;;22.80;55.83;100284.13;5099097;27;45371;-52
2022/09/03 00:13:49;;;;;;;;;6.40;6.40;;;;;22.73;55.98;100278.09;5092010;27;45359;-53
2022/09/03 00:16:20;;;;;;;;;4.80;4.80;;;;;22.68;56.22;100275.38;5066442;27;45676;-51
2022/09/03 00:18:58;;;;;;;;;6.60;6.60;;;;;22.65;56.26;100275.97;5062449;27;45363;-48
2022/09/03 00:21:48;;;;;;;;;5.80;5.80;;;;;22.66;56.21;100278.47;5062325;27;45405;-52
2022/09/03 00:24:18;;;;;;;;;6.40;6.40;;;;;22.64;56.40;100260.31;5062340;27;45317;-52
2022/09/03 00:26:50;;;;;;;;;6.60;6.60;;;;;22.67;56.42;100271.72;5063568;27;45563;-53
2022/09/03 00:29:19;;;;;;;;;7.80;7.60;;;;;22.58;56.20;100259.59;5046564;27;47164;-49
2022/09/03 00:31:50;;;;;;;;;12.40;11.80;;;;;22.52;56.58;100272.81;5062717;27;45413;-51
2022/09/03 00:34:16;;;;;;;;;7.80;7.80;;;;;22.53;56.91;100268.06;5063277;27;45413;-49
2022/09/03 00:36:43;;;;;;;;;8.00;6.75;;;;;22.46;56.95;100268.41;5098017;27;45340;-50
2022/09/03 00:39:14;;;;;;;;;8.80;8.80;;;;;22.41;56.87;100251.72;5079565;27;46477;-52
2022/09/03 00:41:56;;;;;;;;;9.00;7.80;;;;;22.49;56.61;100265.00;5097613;27;45429;-51
2022/09/03 00:44:25;;;;;;;;;7.20;6.60;;;;;22.47;56.89;100258.91;5079630;27;45184;-53
2022/09/03 00:47:01;;;;;;;;;4.80;4.80;;;;;22.48;56.55;100260.56;5098093;27;45430;-51
2022/09/03 00:49:26;;;;;;;;;9.20;9.20;;;;;22.50;56.82;100263.88;5097300;27;45488;-53
2022/09/03 00:51:55;;;;;;;;;9.00;7.25;;;;;22.51;56.74;100270.31;5097667;27;45877;-51
2022/09/03 00:54:41;;;;;;;;;6.80;6.80;;;;;22.33;56.67;100240.09;5097746;27;45371;-51
2022/09/03 00:57:46;;;;;;;;;7.60;6.80;;;;;22.54;56.45;100278.09;5081700;27;45338;-53
2022/09/03 01:00:16;;;;;;;;;6.80;6.80;;;;;22.47;56.59;100270.91;5013713;28;45799;-50
2022/09/03 01:03:05;;;;;;;;;7.20;7.20;;;;;22.45;56.76;100278.78;5069702;27;45254;-53
2022/09/03 01:06:00;;;;;;;;;3.60;3.60;;;;;22.30;57.04;100251.06;5079683;27;45460;-52
2022/09/03 01:08:49;;;;;;;;;7.80;7.80;;;;;22.47;56.35;100276.50;5097257;27;45407;-49
2022/09/03 01:11:26;;;;;;;;;6.00;6.00;;;;;22.45;56.40;100281.56;5097120;27;45388;-54
2022/09/03 01:14:24;;;;;;;;;5.00;5.00;;;;;22.37;56.38;100284.22;5097339;27;45817;-49
2022/09/03 01:17:12;;;;;;;;;6.40;6.40;;;;;22.31;56.57;100281.47;5095501;27;45546;-48
2022/09/03 01:19:56;;;;;;;;;4.60;4.60;;;;;22.31;56.51;100277.88;5076933;27;45574;-51
2022/09/03 01:22:33;;;;;;;;;9.20;8.00;;;;;22.26;56.69;100278.78;5117477;27;46328;-50
2022/09/03 01:25:10;;;;;;;;;7.40;6.80;;;;;22.07;56.97;100256.41;5117619;27;45391;-52
2022/09/03 01:28:04;;;;;;;;;6.60;6.60;;;;;22.16;57.01;100278.94;5117339;27;45300;-49
2022/09/03 01:30:30;;;;;;;;;5.60;5.00;;;;;22.18;56.89;100276.66;5118060;27;45279;-48
2022/09/03 01:33:39;;;;;;;;;7.25;7.00;;;;;22.20;57.16;100271.63;5099345;27;46349;-50
2022/09/03 01:36:29;;;;;;;;;5.40;5.40;;;;;22.25;56.89;100270.69;5094537;27;45415;-49
2022/09/03 01:39:05;;;;;;;;;7.20;5.00;;;;;22.12;56.96;100256.34;5117970;27;45335;-49
2022/09/03 01:42:14;;;;;;;;;7.20;6.20;;;;;22.05;57.09;100248.34;5082723;27;45216;-48
2022/09/03 01:45:05;;;;;;;;;6.40;6.40;;;;;22.23;57.32;100279.38;5071900;27;46875;-49
2022/09/03 01:48:12;;;;;;;;;7.00;5.80;;;;;22.16;57.23;100281.72;5090493;27;45278;-48
2022/09/03 01:50:58;;;;;;;;;6.20;5.40;;;;;21.98;57.26;100255.44;5033351;28;45434;-46
2022/09/03 01:53:56;;;;;;;;;6.00;5.00;;;;;22.11;57.29;100265.88;5078605;27;45539;-47
2022/09/03 01:56:32;;;;;;;;;8.40;6.60;;;;;22.13;57.60;100269.19;5096657;27;46844;-48
2022/09/03 01:59:06;;;;;;;;;8.80;5.00;;;;;22.00;57.59;100254.03;5079027;27;45448;-51
2022/09/03 02:01:36;;;;;;;;;6.60;6.60;;;;;22.06;57.85;100268.72;5078810;27;45346;-50
2022/09/03 02:04:01;;;;;;;;;7.00;7.00;;;;;22.05;58.24;100275.47;5093062;27;45675;-49
2022/09/03 02:06:28;;;;;;;;;5.75;5.75;;;;;21.96;58.27;100280.03;5095410;27;46538;-51
2022/09/03 02:08:53;;;;;;;;;8.80;7.00;;;;;21.99;58.41;100273.88;5081025;27;45441;-52
2022/09/03 02:11:19;;;;;;;;;5.00;4.00;;;;;21.82;58.69;100252.03;5063271;27;45486;-52
2022/09/03 02:13:47;;;;;;;;;6.75;5.50;;;;;21.89;58.84;100270.06;5088088;27;45616;-49
2022/09/03 02:16:24;;;;;;;;;6.60;6.60;;;;;21.86;59.22;100267.03;5091410;27;45808;-50
2022/09/03 02:18:51;;;;;;;;;11.00;7.60;;;;;21.76;59.41;100262.41;5107838;27;45414;-53
2022/09/03 02:21:19;;;;;;;;;3.80;3.00;;;;;21.79;59.65;100273.00;5070708;27;45708;-50
2022/09/03 02:23:44;;;;;;;;;6.00;5.80;;;;;21.70;59.66;100264.47;5094645;27;45472;-49
2022/09/03 02:26:10;;;;;;;;;8.75;8.75;;;;;21.68;59.91;100275.06;5112075;27;47012;-48
2022/09/03 02:28:36;;;;;;;;;6.60;6.40;;;;;21.62;60.28;100276.28;5090881;27;45509;-51
2022/09/03 02:31:02;;;;;;;;;8.00;8.00;;;;;21.34;60.54;100231.38;5089974;27;45501;-49
2022/09/03 02:33:28;;;;;;;;;7.80;7.80;;;;;21.62;60.53;100276.28;5092341;27;45621;-49
2022/09/03 02:35:54;;;;;;;;;7.20;6.40;;;;;21.47;60.44;100244.63;5073028;27;46651;-52
2022/09/03 02:38:24;;;;;;;;;8.00;7.75;;;;;21.51;60.77;100244.84;5092931;27;45446;-50
2022/09/03 02:40:50;;;;;;;;;8.20;8.20;;;;;21.59;61.03;100276.84;5095666;27;45565;-51
2022/09/03 02:43:19;;;;;;;;;11.75;9.50;;;;;21.61;61.07;100278.22;5094693;27;45567;-54
2022/09/03 02:45:46;;;;;;;;;5.80;5.80;;;;;21.60;61.10;100272.94;5060397;27;46324;-50
2022/09/03 02:48:11;;;;;;;;;8.60;8.60;;;;;21.60;61.40;100275.75;5067681;27;45460;-51
2022/09/03 02:50:41;;;;;;;;;6.25;6.25;;;;;21.61;61.62;100283.81;5099043;27;45567;-51
2022/09/03 02:53:06;;;;;;;;;8.20;6.40;;;;;21.53;61.68;100268.56;5114212;27;45529;-50
2022/09/03 02:55:32;;;;;;;;;8.25;7.75;;;;;21.50;61.86;100266.34;5108216;27;47197;-50
2022/09/03 02:57:58;;;;;;;;;9.00;7.50;;;;;21.43;62.45;100265.88;5094922;27;45438;-53
2022/09/03 03:00:24;;;;;;;;;8.60;8.40;;;;;21.54;62.22;100274.97;5098078;27;45407;-50
2022/09/03 03:02:50;;;;;;;;;7.50;7.50;;;;;21.38;62.20;100255.59;5098786;27;45254;-50
2022/09/03 03:05:20;;;;;;;;;9.25;9.25;;;;;21.57;62.29;100279.97;5098784;27;46827;-53
2022/09/03 03:07:46;;;;;;;;;12.00;11.00;;;;;21.35;62.52;100242.22;5080905;27;45457;-51
2022/09/03 03:10:11;;;;;;;;;6.75;5.75;;;;;21.28;62.92;100246.53;5099149;27;45350;-52
2022/09/03 03:12:37;;;;;;;;;10.50;10.50;;;;;20.88;63.01;100183.34;5098973;27;45340;-51
2022/09/03 03:15:03;;;;;;;;;8.00;8.00;;;;;21.39;63.18;100274.00;5080536;27;45413;-46
2022/09/03 03:17:28;;;;;;;;;11.00;11.00;;;;;21.44;63.03;100275.09;5117189;27;45351;-48
2022/09/03 03:19:54;;;;;;;;;11.00;8.00;;;;;21.45;63.16;100277.56;5119676;27;45195;-49
2022/09/03 03:22:19;;;;;;;;;10.50;9.25;;;;;21.29;63.21;100248.19;5119776;27;45208;-49
2022/09/03 03:24:44;;;;;;;;;8.00;8.00;;;;;21.45;63.15;100271.16;5119178;27;46740;-51
2022/09/03 03:27:12;;;;;;;;;10.75;8.75;;;;;21.46;63.55;100281.19;5119767;27;45229;-52
2022/09/03 03:29:38;;;;;;;;;11.60;9.80;;;;;21.44;63.33;100275.09;5119859;27;45279;-50
2022/09/03 03:32:03;;;;;;;;;9.40;9.40;;;;;21.45;63.68;100274.78;5119762;27;45401;-47
2022/09/03 03:34:29;;;;;;;;;10.25;9.00;;;;;21.43;63.58;100285.41;5101351;27;46672;-48
2022/09/03 03:36:55;;;;;;;;;8.75;7.50;;;;;21.44;63.60;100270.31;5101115;27;45422;-51
2022/09/03 03:39:20;;;;;;;;;9.50;9.50;;;;;21.48;63.40;100271.41;5119846;27;45338;-50
2022/09/03 03:41:46;;;;;;;;;9.25;9.25;;;;;21.48;63.41;100273.34;5119705;27;45594;-48
2022/09/03 03:44:11;;;;;;;;;14.50;11.50;;;;;21.45;63.37;100260.81;5119589;27;46311;-48
2022/09/03 03:46:39;;;;;;;;;9.75;7.25;;;;;21.49;63.46;100267.47;5119098;27;45341;-48
2022/09/03 03:49:05;;;;;;;;;11.60;8.40;;;;;21.40;63.51;100244.16;5119284;27;45185;-47
2022/09/03 03:51:31;;;;;;;;;10.60;10.60;;;;;21.48;63.43;100265.81;5100558;27;45558;-50
2022/09/03 03:53:57;;;;;;;;;10.75;9.50;;;;;21.45;63.48;100263.59;5119114;27;45397;-52
2022/09/03 03:56:23;;;;;;;;;7.25;7.25;;;;;21.37;64.03;100256.75;5100567;27;45534;-51
2022/09/03 03:58:48;;;;;;;;;9.40;8.20;;;;;21.37;64.17;100265.13;5119252;27;45431;-49
2022/09/03 04:01:22;;;;;;;;;9.50;8.75;;;;;21.33;63.88;100257.59;5101010;27;45641;-48
2022/09/03 04:03:47;;;;;;;;;11.40;11.40;;;;;21.37;64.06;100261.47;5118845;27;45769;-48
2022/09/03 04:06:18;;;;;;;;;11.00;11.00;;;;;21.35;64.13;100258.97;5119207;27;45382;-51
2022/09/03 04:08:44;;;;;;;;;9.20;8.80;;;;;21.40;64.04;100260.91;5083634;27;45372;-51
2022/09/03 04:11:12;;;;;;;;;11.60;11.40;;;;;21.43;63.90;100260.28;5101048;27;45548;-51
2022/09/03 04:13:39;;;;;;;;;13.00;10.60;;;;;21.27;64.04;100240.09;5060518;27;46950;-46
2022/09/03 04:16:11;;;;;;;;;9.00;7.60;;;;;21.44;64.04;100267.53;5103057;27;45465;-48
2022/09/03 04:18:37;;;;;;;;;14.00;11.40;;;;;21.30;63.93;100238.69;5100510;27;45232;-50
2022/09/03 04:21:13;;;;;;;;;11.00;11.00;;;;;21.42;63.98;100260.59;5118964;27;45384;-51
2022/09/03 04:23:43;;;;;;;;;9.20;9.20;;;;;21.45;63.91;100260.81;5101774;27;45604;-51
2022/09/03 04:26:09;;;;;;;;;9.40;9.40;;;;;21.33;63.92;100246.44;5118224;27;45419;-55
2022/09/03 04:28:35;;;;;;;;;11.60;11.60;;;;;21.44;63.92;100264.75;5118398;27;45399;-49
2022/09/03 04:31:05;;;;;;;;;9.75;8.00;;;;;21.38;64.12;100268.72;5118756;27;45319;-48
2022/09/03 04:33:31;;;;;;;;;7.60;7.60;;;;;21.25;64.48;100251.56;5118386;27;46670;-51
2022/09/03 04:36:17;;;;;;;;;11.00;7.75;;;;;21.39;64.10;100265.63;5091587;27;45523;-53
2022/09/03 04:38:43;;;;;;;;;12.00;11.80;;;;;21.45;64.04;100273.97;5118650;27;45359;-49
2022/09/03 04:41:10;;;;;;;;;14.40;11.40;;;;;21.44;64.07;100261.94;5118698;27;45537;-50
2022/09/03 04:43:36;;;;;;;;;9.00;9.00;;;;;21.22;64.22;100240.16;5118043;27;45670;-51
2022/09/03 04:46:05;;;;;;;;;9.25;9.25;;;;;21.36;64.25;100269.00;5117886;27;45395;-48
2022/09/03 04:48:33;;;;;;;;;8.60;8.40;;;;;21.31;64.30;100255.13;5118437;27;45396;-51
2022/09/03 04:51:13;;;;;;;;;12.40;7.80;;;;;21.27;64.39;100270.78;5118533;27;45383;-50
2022/09/03 04:53:40;;;;;;;;;11.60;11.60;;;;;21.15;64.44;100246.09;5118119;27;45633;-48
2022/09/03 04:56:20;;;;;;;;;10.20;9.20;;;;;21.37;64.25;100269.84;5096392;27;45326;-48
2022/09/03 04:58:46;;;;;;;;;10.60;9.40;;;;;21.33;64.17;100271.56;5116713;27;45403;-52
2022/09/03 05:01:19;;;;;;;;;11.00;11.00;;;;;21.30;64.34;100272.16;5117631;27;45391;-48
2022/09/03 05:03:44;;;;;;;;;10.40;10.00;;;;;21.17;64.33;100255.00;5114821;27;46336;-50
2022/09/03 05:06:10;;;;;;;;;9.75;9.75;;;;;21.13;64.35;100251.97;5118216;27;45231;-49
2022/09/03 05:08:36;;;;;;;;;11.20;10.60;;;;;21.32;64.24;100269.91;5096800;27;45222;-48
2022/09/03 05:11:05;;;;;;;;;10.25;10.25;;;;;21.11;64.44;100250.59;5096435;27;45615;-49
2022/09/03 05:13:32;;;;;;;;;10.80;10.80;;;;;21.20;64.70;100282.31;5114155;27;46798;-50
2022/09/03 05:15:59;;;;;;;;;9.60;9.60;;;;;21.21;64.49;100272.81;5105999;27;45789;-52
2022/09/03 05:18:25;;;;;;;;;9.80;9.00;;;;;21.22;64.48;100274.47;5097130;27;45227;-48
2022/09/03 05:20:59;;;;;;;;;11.00;8.00;;;;;21.22;64.48;100268.06;5097298;27;45604;-50
2022/09/03 05:23:26;;;;;;;;;12.00;9.80;;;;;21.24;64.53;100277.81;5075083;28;46346;-47
2022/09/03 05:25:58;;;;;;;;;12.80;10.80;;;;;21.18;64.77;100267.00;5096408;27;45278;-47
2022/09/03 05:28:26;;;;;;;;;13.20;9.20;;;;;21.09;64.90;100270.41;5096989;27;45326;-50
2022/09/03 05:31:02;;;;;;;;;9.00;9.00;;;;;21.18;65.06;100284.56;5097521;27;45301;-49
2022/09/03 05:33:28;;;;;;;;;9.00;9.00;;;;;21.16;64.79;100284.03;5096933;27;46649;-47
2022/09/03 05:35:59;;;;;;;;;13.75;12.00;;;;;21.16;64.87;100280.41;5078728;27;45566;-51
2022/09/03 05:38:24;;;;;;;;;9.00;9.00;;;;;21.11;65.18;100281.28;5075393;28;45372;-51
2022/09/03 05:40:50;;;;;;;;;11.25;11.25;;;;;21.06;65.42;100287.75;5096722;27;45461;-51
2022/09/03 05:43:16;;;;;;;;;10.00;10.00;;;;;21.04;65.38;100291.97;5096526;27;45339;-51
2022/09/03 05:45:41;;;;;;;;;11.75;11.00;;;;;20.98;65.62;100292.00;5078430;27;45241;-52
2022/09/03 05:48:07;;;;;;;;;10.25;10.25;;;;;20.91;65.26;100280.38;5090062;27;45365;-53
2022/09/03 05:50:32;;;;;;;;;12.50;10.25;;;;;20.94;65.62;100298.47;5097043;27;45503;-50
2022/09/03 05:52:58;;;;;;;;;11.25;9.25;;;;;20.85;65.66;100279.59;5096792;27;46267;-50
2022/09/03 05:55:23;;;;;;;;;12.25;8.25;;;;;21.02;65.48;100303.41;5074753;28;45396;-48
2022/09/03 05:57:52;;;;;;;;;9.25;9.25;;;;;20.94;65.71;100295.69;5095529;27;45381;-55
2022/09/03 06:00:18;;;;;;;;;11.80;9.40;;;;;20.99;65.39;100302.03;5068064;27;45729;-47
2022/09/03 06:02:50;;;;;;;;;11.80;10.00;;;;;20.93;65.71;100313.53;5096122;27;46845;-52
2022/09/03 06:05:17;;;;;;;;;10.60;10.60;;;;;20.83;66.09;100322.81;5096597;27;45445;-48
2022/09/03 06:07:43;;;;;;;;;13.20;10.20;;;;;20.84;65.72;100313.34;5076446;27;45412;-52
2022/09/03 06:10:09;;;;;;;;;14.50;12.50;;;;;20.97;65.71;100323.00;5097321;27;45211;-50
2022/09/03 06:12:35;;;;;;;;;17.40;14.00;;;;;21.01;65.27;100329.66;5074738;27;46727;-52
2022/09/03 06:15:01;;;;;;;;;13.00;12.80;;;;;21.04;64.98;100329.06;5096847;27;45234;-50
2022/09/03 06:17:27;;;;;;;;;11.50;11.50;;;;;21.04;65.22;100317.91;5110251;27;45307;-48
2022/09/03 06:19:52;;;;;;;;;13.00;11.75;;;;;21.09;64.89;100330.97;5117499;27;45291;-48
2022/09/03 06:22:17;;;;;;;;;13.00;12.00;;;;;21.11;64.76;100329.56;5116866;27;46838;-49
2022/09/03 06:24:43;;;;;;;;;12.75;12.75;;;;;20.97;64.53;100306.28;5116455;27;45310;-52
2022/09/03 06:27:08;;;;;;;;;14.00;13.25;;;;;21.04;64.65;100326.28;5117082;27;45383;-51
2022/09/03 06:29:34;;;;;;;;;14.00;14.00;;;;;21.11;64.88;100335.13;5116800;27;45343;-51
2022/09/03 06:32:02;;;;;;;;;11.25;11.25;;;;;21.10;64.78;100336.28;5116533;27;45982;-54
2022/09/03 06:34:28;;;;;;;;;14.40;13.80;;;;;21.12;64.64;100338.75;5116557;27;45367;-53
2022/09/03 06:36:53;;;;;;;;;13.25;12.75;;;;;21.16;64.79;100347.38;5097928;27;45399;-49
2022/09/03 06:39:19;;;;;;;;;14.25;13.00;;;;;21.18;64.57;100347.91;5095193;27;45493;-48
2022/09/03 06:41:47;;;;;;;;;13.00;12.25;;;;;21.19;64.62;100346.78;5114712;27;45375;-53
2022/09/03 06:44:12;;;;;;;;;12.00;12.00;;;;;21.14;63.98;100330.94;5111547;27;45497;-50
2022/09/03 06:46:41;;;;;;;;;8.75;8.75;;;;;21.25;64.42;100346.44;5054752;27;45442;-50
2022/09/03 06:49:07;;;;;;;;;15.00;10.80;;;;;21.24;64.49;100344.78;5095436;27;45678;-52
2022/09/03 06:51:33;;;;;;;;;12.80;12.80;;;;;21.23;63.88;100348.69;5073232;27;45449;-48
2022/09/03 06:54:02;;;;;;;;;13.00;11.00;;;;;21.32;63.96;100350.84;5083511;27;45449;-49
2022/09/03 06:56:28;;;;;;;;;15.00;14.00;;;;;21.20;64.23;100329.75;5036819;28;45817;-49
2022/09/03 06:58:55;;;;;;;;;12.75;12.75;;;;;21.33;63.74;100349.72;5081325;27;45830;-53
2022/09/03 07:01:24;;;;;;;;;12.00;10.20;;;;;21.32;63.88;100350.84;5091880;27;45993;-54
2022/09/03 07:03:57;;;;;;;;;11.80;11.80;;;;;21.32;63.68;100345.25;5092459;27;45507;-53
2022/09/03 07:06:27;;;;;;;;;14.60;12.60;;;;;21.15;64.05;100337.34;5093115;27;45467;-48
2022/09/03 07:08:53;;;;;;;;;16.00;14.60;;;;;21.21;64.05;100348.16;5072679;27;45415;-49
2022/09/03 07:11:21;;;;;;;;;13.25;10.00;;;;;21.20;64.11;100346.50;5052711;28;46646;-51
2022/09/03 07:13:48;;;;;;;;;10.60;10.00;;;;;21.08;64.00;100324.56;5089707;27;45528;-52
2022/09/03 07:16:18;;;;;;;;;11.00;10.80;;;;;21.20;63.73;100342.88;5103833;27;45461;-48
2022/09/03 07:18:44;;;;;;;;;8.60;8.00;;;;;21.22;63.59;100348.97;5090512;27;45796;-51
2022/09/03 07:21:11;;;;;;;;;12.50;11.25;;;;;21.16;63.77;100341.78;5087476;27;46433;-52
2022/09/03 07:23:37;;;;;;;;;12.80;12.40;;;;;21.18;63.84;100336.75;5092340;27;45477;-56
2022/09/03 07:26:04;;;;;;;;;10.80;10.80;;;;;21.08;63.53;100324.56;5092706;27;45447;-51
2022/09/03 07:28:31;;;;;;;;;12.60;12.00;;;;;21.23;63.81;100345.06;5069495;27;45418;-51
2022/09/03 07:31:01;;;;;;;;;8.60;8.60;;;;;21.25;63.64;100354.00;5108198;27;45407;-48
2022/09/03 07:33:29;;;;;;;;;9.00;9.00;;;;;21.28;63.42;100361.75;5072336;28;45483;-53
2022/09/03 07:35:54;;;;;;;;;11.00;10.20;;;;;21.26;63.43;100352.84;5074961;27;45430;-50
2022/09/03 07:38:22;;;;;;;;;12.25;11.25;;;;;21.12;63.42;100325.63;5094454;27;45462;-49
2022/09/03 07:40:47;;;;;;;;;8.60;7.80;;;;;21.18;63.56;100337.56;5106682;27;45891;-52
2022/09/03 07:43:13;;;;;;;;;11.75;9.25;;;;;21.37;63.29;100371.19;5097451;27;45416;-53
2022/09/03 07:45:38;;;;;;;;;9.50;9.50;;;;;21.34;63.39;100370.94;5094863;27;45919;-53
2022/09/03 07:48:04;;;;;;;;;11.75;11.00;;;;;21.35;63.16;100370.63;5062271;27;45449;-51
2022/09/03 07:50:32;;;;;;;;;7.75;7.75;;;;;21.40;63.06;100369.75;5090407;27;46556;-53
2022/09/03 07:52:58;;;;;;;;;10.60;10.00;;;;;21.50;62.57;100369.63;5090588;27;45678;-54
2022/09/03 07:55:24;;;;;;;;;8.75;6.75;;;;;21.62;62.81;100376.78;5094048;27;45444;-51
2022/09/03 07:57:54;;;;;;;;;9.40;8.40;;;;;21.73;62.21;100371.94;5073643;27;45609;-50
2022/09/03 08:00:20;;;;;;;;;9.60;9.60;;;;;21.78;62.14;100367.13;5100732;27;45811;-49
2022/09/03 08:02:45;;;;;;;;;5.00;5.00;;;;;21.79;61.94;100371.56;5091111;27;46357;-54
2022/09/03 08:05:11;;;;;;;;;10.00;10.00;;;;;21.78;61.82;100378.28;5102936;27;46037;-52
2022/09/03 08:07:36;;;;;;;;;12.00;11.00;;;;;21.75;61.72;100373.31;5104334;27;45469;-51
2022/09/03 08:10:02;;;;;;;;;8.50;8.00;;;;;21.78;61.88;100375.50;5093768;27;46292;-51
2022/09/03 08:12:28;;;;;;;;;8.75;8.75;;;;;21.78;61.86;100375.50;5094041;27;45402;-49
2022/09/03 08:14:53;;;;;;;;;7.75;7.75;;;;;21.85;61.90;100380.75;5094076;27;45383;-50
2022/09/03 08:17:19;;;;;;;;;8.25;8.25;;;;;21.67;61.71;100351.59;5100922;27;45369;-51
2022/09/03 08:19:45;;;;;;;;;7.25;7.25;;;;;21.92;61.45;100385.97;5090262;27;45664;-55
2022/09/03 08:22:10;;;;;;;;;6.50;6.50;;;;;21.97;61.77;100387.88;5072479;28;45845;-50
2022/09/03 08:24:36;;;;;;;;;6.75;6.75;;;;;21.89;61.24;100378.19;5055645;27;45862;-48
2022/09/03 08:27:02;;;;;;;;;6.75;6.75;;;;;21.92;61.43;100394.34;5094234;27;45454;-48
2022/09/03 08:29:27;;;;;;;;;9.80;8.00;;;;;21.94;61.26;100389.31;5089027;27;46651;-49
2022/09/03 08:31:53;;;;;;;;;6.50;6.50;;;;;21.95;61.66;100402.16;5077080;27;45510;-53
2022/09/03 08:34:18;;;;;;;;;8.50;7.50;;;;;21.95;61.45;100402.16;5093851;27;45896;-50
2022/09/03 08:36:45;;;;;;;;;8.75;7.25;;;;;22.05;61.23;100406.78;5073719;27;45548;-49
2022/09/03 08:39:10;;;;;;;;;7.00;7.00;;;;;21.96;60.82;100383.41;5093624;27;45810;-52
2022/09/03 08:41:54;;;;;;;;;7.25;7.25;;;;;22.14;60.93;100412.53;5093470;27;45463;-55
2022/09/03 08:44:25;;;;;;;;;9.00;8.00;;;;;22.28;60.45;100407.88;5093032;27;45612;-51
2022/09/03 08:47:01;;;;;;;;;5.00;5.00;;;;;22.39;60.20;100407.72;5064453;27;45936;-53
2022/09/03 08:49:39;;;;;;;;;8.40;7.00;;;;;22.46;59.42;100395.06;5093889;27;46141;-53
2022/09/03 08:52:08;;;;;;;;;7.00;7.00;;;;;22.52;59.24;100404.22;5076447;27;45539;-51
2022/09/03 08:54:33;;;;;;;;;8.20;7.80;;;;;22.29;59.36;100362.03;5055281;27;45852;-53
2022/09/03 08:57:00;;;;;;;;;8.00;8.00;;;;;22.73;59.24;100420.72;5071389;27;46629;-50
2022/09/03 08:59:26;;;;;;;;;5.60;5.60;;;;;22.82;59.25;100418.06;5080765;27;47230;-50
2022/09/03 09:01:55;;;;;;;;;8.00;6.75;;;;;23.04;58.51;100422.22;5074146;27;45381;-57
2022/09/03 09:04:49;;;;;;;;;5.80;5.40;;;;;23.11;58.26;100417.06;5033772;27;45870;-54
2022/09/03 09:07:23;;;;;;;;;9.40;6.20;;;;;23.11;57.63;100403.88;5090822;27;45517;-52
2022/09/03 09:09:59;;;;;;;;;5.40;4.20;;;;;23.33;57.45;100424.00;5090885;27;45495;-53
2022/09/03 09:12:24;;;;;;;;;6.00;6.00;;;;;23.22;57.20;100395.34;5092898;27;45486;-50
2022/09/03 09:15:06;;;;;;;;;6.25;5.25;;;;;23.40;56.89;100422.47;5093200;27;45863;-52
2022/09/03 09:18:02;;;;;;;;;5.40;5.40;;;;;23.52;56.74;100429.53;5057358;27;45449;-52
2022/09/03 09:20:40;;;;;;;;;5.00;5.00;;;;;23.33;56.72;100382.84;5087564;27;46396;-52
2022/09/03 09:23:07;;;;;;;;;4.40;4.40;;;;;23.62;56.56;100406.13;5092781;27;45475;-50
2022/09/03 09:25:38;;;;;;;;;6.40;6.40;;;;;23.65;56.02;100386.72;5092896;27;45480;-49
2022/09/03 09:28:16;;;;;;;;;5.20;5.20;;;;;23.93;56.07;100420.38;5071529;28;45460;-54
2022/09/03 09:30:41;;;;;;;;;6.20;5.60;;;;;23.89;55.64;100413.72;5090573;27;45586;-51
2022/09/03 09:33:06;;;;;;;;;5.00;5.00;;;;;23.86;55.45;100410.72;5087271;27;45526;-50
2022/09/03 09:35:32;;;;;;;;;5.50;5.50;;;;;23.81;55.65;100426.47;5088618;27;45679;-53
2022/09/03 09:37:59;;;;;;;;;7.00;4.50;;;;;23.64;56.27;100427.09;5092024;27;45508;-53
2022/09/03 09:40:31;;;;;;;;;5.40;5.40;;;;;23.55;56.46;100438.16;5091268;27;47524;-52
2022/09/03 09:43:25;;;;;;;;;4.00;4.00;;;;;23.51;56.75;100439.94;5110574;27;45468;-51
2022/09/03 09:45:52;;;;;;;;;7.40;7.40;;;;;23.45;57.03;100426.31;5089824;27;45400;-52
2022/09/03 09:48:20;;;;;;;;;7.40;6.20;;;;;23.52;56.94;100444.38;5069204;27;45785;-52
2022/09/03 09:50:45;;;;;;;;;4.80;4.80;;;;;23.59;56.98;100434.75;5090044;27;46798;-52
2022/09/03 09:53:14;;;;;;;;;6.00;6.00;;;;;23.65;56.66;100439.94;5088487;27;45830;-51
2022/09/03 09:55:53;;;;;;;;;4.20;4.20;;;;;23.73;57.13;100432.00;5099124;27;45461;-53
2022/09/03 09:58:20;;;;;;;;;5.40;4.80;;;;;23.88;56.36;100436.44;5086478;27;45393;-52
2022/09/03 10:00:56;;;;;;;;;4.80;3.60;;;;;23.96;55.73;100433.75;5055549;27;46087;-53
2022/09/03 10:03:21;;;;;;;;;5.40;5.40;;;;;24.14;54.97;100434.03;5069143;28;45478;-53
2022/09/03 10:05:57;;;;;;;;;7.00;6.00;;;;;24.34;54.50;100431.94;5072631;27;45467;-49
2022/09/03 10:08:23;;;;;;;;;5.20;5.00;;;;;24.27;54.26;100403.47;5053095;27;47184;-50
2022/09/03 10:10:49;;;;;;;;;5.00;5.00;;;;;24.49;53.76;100440.00;5057838;27;46590;-51
2022/09/03 10:13:18;;;;;;;;;4.00;4.00;;;;;24.36;53.66;100402.44;5086138;27;45769;-51
2022/09/03 10:15:58;;;;;;;;;4.00;4.00;;;;;24.65;53.35;100448.06;5088566;27;45502;-51
2022/09/03 10:18:47;;;;;;;;;5.00;5.00;;;;;24.59;53.39;100444.56;5085459;27;45695;-54
2022/09/03 10:21:17;;;;;;;;;4.00;4.00;;;;;24.49;53.37;100431.59;5068594;27;46220;-51
2022/09/03 10:23:49;;;;;;;;;5.40;5.40;;;;;24.60;53.05;100453.81;5054596;27;45437;-51
2022/09/03 10:26:16;;;;;;;;;4.80;4.80;;;;;24.49;53.58;100447.59;5073254;27;45400;-51
2022/09/03 10:28:50;;;;;;;;;5.40;4.20;;;;;24.39;53.90;100445.84;5083999;27;45432;-55
2022/09/03 10:31:54;;;;;;;;;5.00;5.00;;;;;24.39;54.05;100456.22;5074495;27;46223;-51
2022/09/03 10:34:36;;;;;;;;;4.20;4.20;;;;;24.29;54.30;100465.69;5038118;27;45873;-50
2022/09/03 10:37:29;;;;;;;;;5.60;5.20;;;;;24.28;54.63;100464.84;5074496;27;45798;-51
2022/09/03 10:39:57;;;;;;;;;8.00;8.00;;;;;24.22;54.74;100471.69;5092181;27;45671;-50
2022/09/03 10:42:34;;;;;;;;;5.00;5.00;;;;;24.14;54.86;100467.66;5091402;27;45487;-52
2022/09/03 10:45:15;;;;;;;;;9.20;8.40;;;;;24.09;55.49;100462.16;5064978;27;45484;-52
2022/09/03 10:48:37;;;;;;;;;6.00;6.00;;;;;24.12;53.92;100464.31;5082083;27;45442;-50
2022/09/03 10:51:19;;;;;;;;;6.20;6.20;;;;;24.16;54.15;100468.16;5008186;28;45560;-50
2022/09/03 10:54:02;;;;;;;;;3.00;3.00;;;;;24.09;53.51;100446.16;4992446;28;46497;-51
2022/09/03 10:57:07;;;;;;;;;4.80;4.80;;;;;24.49;53.92;100464.44;5076110;27;45465;-47
2022/09/03 10:59:51;;;;;;;;;4.00;4.00;;;;;24.77;52.44;100455.97;5090903;27;45368;-49
2022/09/03 11:02:52;;;;;;;;;6.20;6.20;;;;;24.83;52.51;100460.34;5095666;27;45483;-53
2022/09/03 11:05:18;;;;;;;;;6.20;5.60;;;;;24.87;52.39;100455.72;5079823;27;46267;-52
2022/09/03 11:07:46;;;;;;;;;4.60;4.60;;;;;24.84;52.58;100455.53;5095247;27;45737;-50
2022/09/03 11:10:25;;;;;;;;;3.20;3.20;;;;;24.97;52.21;100446.25;5066164;27;46512;-49
2022/09/03 11:13:00;;;;;;;;;5.00;5.00;;;;;25.09;51.65;100444.84;5058287;27;45351;-53
2022/09/03 11:15:30;;;;;;;;;3.20;3.20;;;;;25.07;50.97;100433.13;5089364;27;47014;-53
2022/09/03 11:18:01;;;;;;;;;4.00;4.00;;;;;25.09;50.90;100414.81;5093909;27;45450;-51
2022/09/03 11:20:26;;;;;;;;;4.00;4.00;;;;;25.50;50.29;100443.81;5077086;27;45442;-50
2022/09/03 11:22:55;;;;;;;;;7.25;5.50;;;;;25.49;50.54;100444.16;5094087;27;45568;-52
2022/09/03 11:25:24;;;;;;;;;4.00;3.40;;;;;25.43;50.34;100457.50;5075982;27;45433;-52
2022/09/03 11:28:10;;;;;;;;;4.80;4.00;;;;;25.44;50.53;100459.16;5060302;27;45516;-54
2022/09/03 11:30:39;;;;;;;;;4.20;4.20;;;;;25.41;50.54;100432.53;5094715;27;45586;-57
2022/09/03 11:33:06;;;;;;;;;2.60;2.20;;;;;25.58;49.72;100454.34;5075987;27;45619;-56
2022/09/03 11:35:32;;;;;;;;;3.00;3.00;;;;;25.54;49.91;100435.59;5058366;27;45817;-54
2022/09/03 11:37:58;;;;;;;;;3.40;3.40;;;;;25.51;49.86;100453.09;5094545;27;45906;-54
2022/09/03 11:40:56;;;;;;;;;3.40;3.40;;;;;25.33;50.15;100449.34;5076176;27;45550;-53